Home > Products > Valid Products > TAF

000
FTUS43 KOAX 270520
TAFOFK
TAF
KOFK 270520Z 2706/2806 36009KT P6SM SCT050 BKN150
     FM271500 18006KT P6SM BKN100
     FM272000 18009KT P6SM OVC050
     FM280000 15010KT P6SM OVC050=



000
FTUS43 KOAX 270520
TAFOFK
TAF
KOFK 270520Z 2706/2806 36009KT P6SM SCT050 BKN150
     FM271500 18006KT P6SM BKN100
     FM272000 18009KT P6SM OVC050
     FM280000 15010KT P6SM OVC050=



000
FTUS43 KOAX 270520
TAFOFK
TAF
KOFK 270520Z 2706/2806 36009KT P6SM SCT050 BKN150
     FM271500 18006KT P6SM BKN100
     FM272000 18009KT P6SM OVC050
     FM280000 15010KT P6SM OVC050=



000
FTUS43 KOAX 270520
TAFLNK
TAF
KLNK 270520Z 2706/2806 36008KT P6SM SCT050 BKN150
      TEMPO 2706/2710 5SM BR
     FM271800 VRB06KT P6SM BKN100
     FM272300 18007KT P6SM OVC050=



000
FTUS43 KOAX 270520
TAFOMA
TAF
KOMA 270520Z 2706/2806 36008KT P6SM SCT050 SCT150
     FM271800 VRB06KT P6SM BKN100
     FM272300 18007KT P6SM OVC050 PROB30 2801/2805 -RASN BKN025=



000
FTUS43 KOAX 270520
TAFLNK
TAF
KLNK 270520Z 2706/2806 36008KT P6SM SCT050 BKN150
      TEMPO 2706/2710 5SM BR
     FM271800 VRB06KT P6SM BKN100
     FM272300 18007KT P6SM OVC050=



000
FTUS43 KOAX 270520
TAFOMA
TAF
KOMA 270520Z 2706/2806 36008KT P6SM SCT050 SCT150
     FM271800 VRB06KT P6SM BKN100
     FM272300 18007KT P6SM OVC050 PROB30 2801/2805 -RASN BKN025=



000
FTUS43 KOAX 270520
TAFLNK
TAF
KLNK 270520Z 2706/2806 36008KT P6SM SCT050 BKN150
      TEMPO 2706/2710 5SM BR
     FM271800 VRB06KT P6SM BKN100
     FM272300 18007KT P6SM OVC050=



000
FTUS43 KOAX 270520
TAFOFK
TAF
KOFK 270520Z 2706/2806 36009KT P6SM SCT050 BKN150
     FM271500 18006KT P6SM BKN100
     FM272000 18009KT P6SM OVC050
     FM280000 15010KT P6SM OVC050=



000
FTUS43 KOAX 270520
TAFLNK
TAF
KLNK 270520Z 2706/2806 36008KT P6SM SCT050 BKN150
      TEMPO 2706/2710 5SM BR
     FM271800 VRB06KT P6SM BKN100
     FM272300 18007KT P6SM OVC050=



000
FTUS43 KOAX 270520
TAFOMA
TAF
KOMA 270520Z 2706/2806 36008KT P6SM SCT050 SCT150
     FM271800 VRB06KT P6SM BKN100
     FM272300 18007KT P6SM OVC050 PROB30 2801/2805 -RASN BKN025=



000
FTUS43 KOAX 270520
TAFOMA
TAF
KOMA 270520Z 2706/2806 36008KT P6SM SCT050 SCT150
     FM271800 VRB06KT P6SM BKN100
     FM272300 18007KT P6SM OVC050 PROB30 2801/2805 -RASN BKN025=



000
FTUS43 KOAX 270316 AAA
TAFLNK
TAF AMD
KLNK 270316Z 2703/2724 36008KT 5SM BR OVC015
      TEMPO 2703/2704 BKN009
     FM270400 36008KT P6SM BKN080
     FM271900 19008KT P6SM BKN120=



000
FTUS43 KOAX 270316 AAA
TAFLNK
TAF AMD
KLNK 270316Z 2703/2724 36008KT 5SM BR OVC015
      TEMPO 2703/2704 BKN009
     FM270400 36008KT P6SM BKN080
     FM271900 19008KT P6SM BKN120=



000
FTUS43 KOAX 270148 AAA
TAFOMA
TAF AMD
KOMA 270148Z 2702/2724 36008KT P6SM BKN060
     FM272200 18008KT P6SM BKN120=



000
FTUS43 KOAX 270148 AAA
TAFOMA
TAF AMD
KOMA 270148Z 2702/2724 36008KT P6SM BKN060
     FM272200 18008KT P6SM BKN120=



000
FTUS43 KOAX 270148 AAA
TAFOMA
TAF AMD
KOMA 270148Z 2702/2724 36008KT P6SM BKN060
     FM272200 18008KT P6SM BKN120=



000
FTUS43 KOAX 270148 AAA
TAFOMA
TAF AMD
KOMA 270148Z 2702/2724 36008KT P6SM BKN060
     FM272200 18008KT P6SM BKN120=



000
FTUS43 KOAX 270147 AAA
TAFOFK
TAF AMD
KOFK 270147Z 2702/2724 36009KT P6SM BKN070
     FM271600 18010KT P6SM BKN120=



000
FTUS43 KOAX 270147 AAA
TAFOFK
TAF AMD
KOFK 270147Z 2702/2724 36009KT P6SM BKN070
     FM271600 18010KT P6SM BKN120=



000
FTUS43 KOAX 262321
TAFOMA
TAF
KOMA 262321Z 2700/2724 35011KT P6SM -RA OVC025
      TEMPO 2700/2702 3SM -RA BR OVC012
     FM270400 35008KT P6SM BKN150
     FM272200 18008KT P6SM BKN120=



000
FTUS43 KOAX 262321
TAFOFK
TAF
KOFK 262321Z 2700/2724 01011KT 3SM -RASN BR OVC015
      TEMPO 2700/2701 2SM -SN BR OVC007
     FM270300 36009KT 5SM BR OVC025
     FM270800 01004KT P6SM BKN150
     FM271600 18010KT P6SM BKN120=



000
FTUS43 KOAX 262321
TAFLNK
TAF
KLNK 262321Z 2700/2724 01011KT 4SM -RA BR OVC025
     FM270400 36008KT P6SM BKN150
     FM271900 19008KT P6SM BKN120=



000
FTUS43 KOAX 262321
TAFOFK
TAF
KOFK 262321Z 2700/2724 01011KT 3SM -RASN BR OVC015
      TEMPO 2700/2701 2SM -SN BR OVC007
     FM270300 36009KT 5SM BR OVC025
     FM270800 01004KT P6SM BKN150
     FM271600 18010KT P6SM BKN120=



000
FTUS43 KOAX 262321
TAFOMA
TAF
KOMA 262321Z 2700/2724 35011KT P6SM -RA OVC025
      TEMPO 2700/2702 3SM -RA BR OVC012
     FM270400 35008KT P6SM BKN150
     FM272200 18008KT P6SM BKN120=



000
FTUS43 KOAX 262321
TAFLNK
TAF
KLNK 262321Z 2700/2724 01011KT 4SM -RA BR OVC025
     FM270400 36008KT P6SM BKN150
     FM271900 19008KT P6SM BKN120=



000
FTUS43 KOAX 262223 AAA
TAFLNK
TAF AMD
KLNK 262223Z 2622/2718 36010KT 4SM -RA BR OVC025
     FM270100 01010KT P6SM BKN025 OVC050
     FM270600 36005KT P6SM SCT030 BKN250=



000
FTUS43 KOAX 262223 AAA
TAFLNK
TAF AMD
KLNK 262223Z 2622/2718 36010KT 4SM -RA BR OVC025
     FM270100 01010KT P6SM BKN025 OVC050
     FM270600 36005KT P6SM SCT030 BKN250=



000
FTUS43 KOAX 262223 AAA
TAFLNK
TAF AMD
KLNK 262223Z 2622/2718 36010KT 4SM -RA BR OVC025
     FM270100 01010KT P6SM BKN025 OVC050
     FM270600 36005KT P6SM SCT030 BKN250=



000
FTUS43 KOAX 262223 AAA
TAFLNK
TAF AMD
KLNK 262223Z 2622/2718 36010KT 4SM -RA BR OVC025
     FM270100 01010KT P6SM BKN025 OVC050
     FM270600 36005KT P6SM SCT030 BKN250=



000
FTUS43 KOAX 262128 AAB
TAFOFK
TAF AMD
KOFK 262128Z 2621/2718 36011KT 2SM -RASN BR OVC010
      TEMPO 2621/2623 1SM -SN BR OVC004
     FM270100 36010KT 4SM BR OVC008
     FM270600 01006KT P6SM BKN150=



000
FTUS43 KOAX 262128 AAB
TAFOFK
TAF AMD
KOFK 262128Z 2621/2718 36011KT 2SM -RASN BR OVC010
      TEMPO 2621/2623 1SM -SN BR OVC004
     FM270100 36010KT 4SM BR OVC008
     FM270600 01006KT P6SM BKN150=



000
FTUS43 KOAX 262128 AAB
TAFOFK
TAF AMD
KOFK 262128Z 2621/2718 36011KT 2SM -RASN BR OVC010
      TEMPO 2621/2623 1SM -SN BR OVC004
     FM270100 36010KT 4SM BR OVC008
     FM270600 01006KT P6SM BKN150=



000
FTUS43 KOAX 262128 AAB
TAFOFK
TAF AMD
KOFK 262128Z 2621/2718 36011KT 2SM -RASN BR OVC010
      TEMPO 2621/2623 1SM -SN BR OVC004
     FM270100 36010KT 4SM BR OVC008
     FM270600 01006KT P6SM BKN150=



000
FTUS43 KOAX 261916 AAA
TAFOFK
TAF AMD
KOFK 261916Z 2619/2718 36011KT P6SM OVC050
      TEMPO 2619/2622 1SM -SN BR BKN015 OVC040
     FM270600 01006KT P6SM BKN150=



000
FTUS43 KOAX 261916 AAA
TAFOFK
TAF AMD
KOFK 261916Z 2619/2718 36011KT P6SM OVC050
      TEMPO 2619/2622 1SM -SN BR BKN015 OVC040
     FM270600 01006KT P6SM BKN150=



000
FTUS43 KOAX 261736
TAFOMA
TAF
KOMA 261736Z 2618/2718 33010KT P6SM SCT080 SCT250
     FM262300 35010KT P6SM OVC070
      TEMPO 2623/2701 6SM -RASN SCT025 OVC050
     FM270600 35006KT P6SM SCT030 BKN250=



000
FTUS43 KOAX 261736
TAFLNK
TAF
KLNK 261736Z 2618/2718 30008KT P6SM SCT080 SCT250
     FM262200 36010KT P6SM OVC060
      TEMPO 2622/2702 01011KT 6SM -RA SCT025 OVC040
     FM270600 36005KT P6SM SCT030 BKN250=



000
FTUS43 KOAX 261736
TAFOFK
TAF
KOFK 261736Z 2618/2718 30008KT P6SM SCT050 OVC100
     FM262100 36011KT P6SM OVC050
      TEMPO 2621/2623 6SM -RASN SCT025 OVC040
     FM270600 01006KT P6SM BKN150=



000
FTUS43 KOAX 261736
TAFOFK
TAF
KOFK 261736Z 2618/2718 30008KT P6SM SCT050 OVC100
     FM262100 36011KT P6SM OVC050
      TEMPO 2621/2623 6SM -RASN SCT025 OVC040
     FM270600 01006KT P6SM BKN150=



000
FTUS43 KOAX 261736
TAFLNK
TAF
KLNK 261736Z 2618/2718 30008KT P6SM SCT080 SCT250
     FM262200 36010KT P6SM OVC060
      TEMPO 2622/2702 01011KT 6SM -RA SCT025 OVC040
     FM270600 36005KT P6SM SCT030 BKN250=



000
FTUS43 KOAX 261736
TAFOFK
TAF
KOFK 261736Z 2618/2718 30008KT P6SM SCT050 OVC100
     FM262100 36011KT P6SM OVC050
      TEMPO 2621/2623 6SM -RASN SCT025 OVC040
     FM270600 01006KT P6SM BKN150=



000
FTUS43 KOAX 261736
TAFOFK
TAF
KOFK 261736Z 2618/2718 30008KT P6SM SCT050 OVC100
     FM262100 36011KT P6SM OVC050
      TEMPO 2621/2623 6SM -RASN SCT025 OVC040
     FM270600 01006KT P6SM BKN150=



000
FTUS43 KOAX 261736
TAFOMA
TAF
KOMA 261736Z 2618/2718 33010KT P6SM SCT080 SCT250
     FM262300 35010KT P6SM OVC070
      TEMPO 2623/2701 6SM -RASN SCT025 OVC050
     FM270600 35006KT P6SM SCT030 BKN250=



000
FTUS43 KOAX 261736
TAFLNK
TAF
KLNK 261736Z 2618/2718 30008KT P6SM SCT080 SCT250
     FM262200 36010KT P6SM OVC060
      TEMPO 2622/2702 01011KT 6SM -RA SCT025 OVC040
     FM270600 36005KT P6SM SCT030 BKN250=



000
FTUS43 KOAX 261736
TAFOMA
TAF
KOMA 261736Z 2618/2718 33010KT P6SM SCT080 SCT250
     FM262300 35010KT P6SM OVC070
      TEMPO 2623/2701 6SM -RASN SCT025 OVC050
     FM270600 35006KT P6SM SCT030 BKN250=



000
FTUS43 KOAX 261736
TAFOMA
TAF
KOMA 261736Z 2618/2718 33010KT P6SM SCT080 SCT250
     FM262300 35010KT P6SM OVC070
      TEMPO 2623/2701 6SM -RASN SCT025 OVC050
     FM270600 35006KT P6SM SCT030 BKN250=



000
FTUS43 KOAX 261120
TAFOMA
TAF
KOMA 261120Z 2612/2712 VRB03KT P6SM SKC
     FM261700 33010KT P6SM SCT080 BKN150
     FM262300 35010KT P6SM VCSH BKN080
     FM270200 35006KT P6SM SCT080=



000
FTUS43 KOAX 261120
TAFOMA
TAF
KOMA 261120Z 2612/2712 VRB03KT P6SM SKC
     FM261700 33010KT P6SM SCT080 BKN150
     FM262300 35010KT P6SM VCSH BKN080
     FM270200 35006KT P6SM SCT080=



000
FTUS43 KOAX 261120
TAFOFK
TAF
KOFK 261120Z 2612/2712 27007KT P6SM SCT150
     FM261700 32006KT P6SM SCT060 BKN080
     FM262200 36007KT P6SM -SHRA SCT040 BKN060
     FM270000 02008KT P6SM SCT080=



000
FTUS43 KOAX 261120
TAFLNK
TAF
KLNK 261120Z 2612/2712 VRB04KT P6SM SKC
     FM261700 32007KT P6SM SCT080 BKN150
     FM262300 01010KT P6SM -SHRA SCT040 BKN060
     FM270200 02006KT P6SM SCT080=



000
FTUS43 KOAX 261120
TAFLNK
TAF
KLNK 261120Z 2612/2712 VRB04KT P6SM SKC
     FM261700 32007KT P6SM SCT080 BKN150
     FM262300 01010KT P6SM -SHRA SCT040 BKN060
     FM270200 02006KT P6SM SCT080=



000
FTUS43 KOAX 261120
TAFOFK
TAF
KOFK 261120Z 2612/2712 27007KT P6SM SCT150
     FM261700 32006KT P6SM SCT060 BKN080
     FM262200 36007KT P6SM -SHRA SCT040 BKN060
     FM270000 02008KT P6SM SCT080=



000
FTUS43 KOAX 260520
TAFOMA
TAF
KOMA 260520Z 2606/2706 34006KT P6SM BKN250
     FM262000 31009KT P6SM BKN050 PROB30 2622/2702 -SHRA BKN025=



000
FTUS43 KOAX 260520
TAFOFK
TAF
KOFK 260520Z 2606/2706 33007KT P6SM SCT250
     FM261500 27005KT P6SM BKN050 PROB30 2620/2701 33007KT -SHRA
      BKN025
     FM270100 35008KT P6SM BKN080=



000
FTUS43 KOAX 260520
TAFLNK
TAF
KLNK 260520Z 2606/2706 34007KT P6SM BKN250
     FM262000 31009KT P6SM BKN050 PROB30 2622/2703 02010KT -SHRA
      BKN025=



000
FTUS43 KOAX 260520
TAFOMA
TAF
KOMA 260520Z 2606/2706 34006KT P6SM BKN250
     FM262000 31009KT P6SM BKN050 PROB30 2622/2702 -SHRA BKN025=



000
FTUS43 KOAX 260520
TAFLNK
TAF
KLNK 260520Z 2606/2706 34007KT P6SM BKN250
     FM262000 31009KT P6SM BKN050 PROB30 2622/2703 02010KT -SHRA
      BKN025=



000
FTUS43 KOAX 260520
TAFOFK
TAF
KOFK 260520Z 2606/2706 33007KT P6SM SCT250
     FM261500 27005KT P6SM BKN050 PROB30 2620/2701 33007KT -SHRA
      BKN025
     FM270100 35008KT P6SM BKN080=



000
FTUS43 KOAX 260255 CCA
TAFOMA
TAF COR
KOMA 260255Z 2600/2624 34006KT P6SM BKN250
     FM262000 31009KT P6SM BKN050 PROB30 2622/2624 -SHRA BKN035=



000
FTUS43 KOAX 260255 CCA
TAFOMA
TAF COR
KOMA 260255Z 2600/2624 34006KT P6SM BKN250
     FM262000 31009KT P6SM BKN050 PROB30 2622/2624 -SHRA BKN035=



000
FTUS43 KOAX 260255 CCA
TAFOMA
TAF COR
KOMA 260255Z 2600/2624 34006KT P6SM BKN250
     FM262000 31009KT P6SM BKN050 PROB30 2622/2624 -SHRA BKN035=



000
FTUS43 KOAX 252320
TAFLNK
TAF
KLNK 252320Z 2600/2624 36007KT P6SM BKN250
     FM262000 31009KT P6SM BKN050 PROB30 2622/2624 -SHRA BKN035=



000
FTUS43 KOAX 252320
TAFLNK
TAF
KLNK 252320Z 2600/2624 36007KT P6SM BKN250
     FM262000 31009KT P6SM BKN050 PROB30 2622/2624 -SHRA BKN035=



000
FTUS43 KOAX 252320
TAFLNK
TAF
KLNK 252320Z 2600/2624 36007KT P6SM BKN250
     FM262000 31009KT P6SM BKN050 PROB30 2622/2624 -SHRA BKN035=



000
FTUS43 KOAX 252320
TAFOFK
TAF
KOFK 252320Z 2600/2624 33011KT P6SM SCT040 BKN250
     FM260100 33007KT P6SM BKN150
     FM261500 27005KT P6SM BKN050 PROB30 2620/2624 -SHRA BKN025=



000
FTUS43 KOAX 252320
TAFOMA
TAF
KOMA 252320Z 2600/2624 34007KT P6SM BKN250
     FM262000 31090KT P6SM BKN050 PROB30 2622/2624 -SHRA BKN035=



000
FTUS43 KOAX 252320
TAFLNK
TAF
KLNK 252320Z 2600/2624 36007KT P6SM BKN250
     FM262000 31009KT P6SM BKN050 PROB30 2622/2624 -SHRA BKN035=



000
FTUS43 KOAX 252320
TAFOFK
TAF
KOFK 252320Z 2600/2624 33011KT P6SM SCT040 BKN250
     FM260100 33007KT P6SM BKN150
     FM261500 27005KT P6SM BKN050 PROB30 2620/2624 -SHRA BKN025=



000
FTUS43 KOAX 252320
TAFOMA
TAF
KOMA 252320Z 2600/2624 34007KT P6SM BKN250
     FM262000 31090KT P6SM BKN050 PROB30 2622/2624 -SHRA BKN035=



000
FTUS43 KOAX 252320
TAFOFK
TAF
KOFK 252320Z 2600/2624 33011KT P6SM SCT040 BKN250
     FM260100 33007KT P6SM BKN150
     FM261500 27005KT P6SM BKN050 PROB30 2620/2624 -SHRA BKN025=



000
FTUS43 KOAX 252320
TAFOMA
TAF
KOMA 252320Z 2600/2624 34007KT P6SM BKN250
     FM262000 31090KT P6SM BKN050 PROB30 2622/2624 -SHRA BKN035=



000
FTUS43 KOAX 252320
TAFOFK
TAF
KOFK 252320Z 2600/2624 33011KT P6SM SCT040 BKN250
     FM260100 33007KT P6SM BKN150
     FM261500 27005KT P6SM BKN050 PROB30 2620/2624 -SHRA BKN025=



000
FTUS43 KOAX 252320
TAFOMA
TAF
KOMA 252320Z 2600/2624 34007KT P6SM BKN250
     FM262000 31090KT P6SM BKN050 PROB30 2622/2624 -SHRA BKN035=



000
FTUS43 KOAX 251818 AAA
TAFOFK
TAF AMD
KOFK 251818Z 2518/2618 34018G24KT P6SM SCT028 BKN250
      TEMPO 2518/2520 BKN028
     FM260000 34012KT P6SM SCT250
     FM260100 34004KT P6SM SKC=



000
FTUS43 KOAX 251818 AAA
TAFOFK
TAF AMD
KOFK 251818Z 2518/2618 34018G24KT P6SM SCT028 BKN250
      TEMPO 2518/2520 BKN028
     FM260000 34012KT P6SM SCT250
     FM260100 34004KT P6SM SKC=



000
FTUS43 KOAX 251818 AAA
TAFOFK
TAF AMD
KOFK 251818Z 2518/2618 34018G24KT P6SM SCT028 BKN250
      TEMPO 2518/2520 BKN028
     FM260000 34012KT P6SM SCT250
     FM260100 34004KT P6SM SKC=



000
FTUS43 KOAX 251730
TAFOFK
TAF
KOFK 251730Z 2518/2618 34018G24KT P6SM SCT030 BKN250
     FM260000 34012KT P6SM SCT250
     FM260100 34004KT P6SM SKC=



000
FTUS43 KOAX 251730
TAFOMA
TAF
KOMA 251730Z 2518/2618 34016G25KT P6SM SCT025 BKN100
      TEMPO 2518/2519 BKN025
     FM252300 34012KT P6SM BKN250
     FM260000 33005KT P6SM SKC=



000
FTUS43 KOAX 251730
TAFLNK
TAF
KLNK 251730Z 2518/2618 36016G25KT P6SM SCT025 BKN100
      TEMPO 2518/2519 BKN025
     FM252200 36014KT P6SM BKN250
     FM260000 35005KT P6SM SKC=



000
FTUS43 KOAX 251730
TAFOFK
TAF
KOFK 251730Z 2518/2618 34018G24KT P6SM SCT030 BKN250
     FM260000 34012KT P6SM SCT250
     FM260100 34004KT P6SM SKC=



000
FTUS43 KOAX 251730
TAFOMA
TAF
KOMA 251730Z 2518/2618 34016G25KT P6SM SCT025 BKN100
      TEMPO 2518/2519 BKN025
     FM252300 34012KT P6SM BKN250
     FM260000 33005KT P6SM SKC=



000
FTUS43 KOAX 251730
TAFLNK
TAF
KLNK 251730Z 2518/2618 36016G25KT P6SM SCT025 BKN100
      TEMPO 2518/2519 BKN025
     FM252200 36014KT P6SM BKN250
     FM260000 35005KT P6SM SKC=



000
FTUS43 KOAX 251714 AAA
TAFOFK
TAF AMD
KOFK 251714Z 2517/2612 34015G22KT P6SM SCT200
      TEMPO 2517/2518 BKN025
     FM260000 34008KT P6SM FEW060=



000
FTUS43 KOAX 251714 AAA
TAFOFK
TAF AMD
KOFK 251714Z 2517/2612 34015G22KT P6SM SCT200
      TEMPO 2517/2518 BKN025
     FM260000 34008KT P6SM FEW060=



000
FTUS43 KOAX 251714 AAA
TAFOFK
TAF AMD
KOFK 251714Z 2517/2612 34015G22KT P6SM SCT200
      TEMPO 2517/2518 BKN025
     FM260000 34008KT P6SM FEW060=



000
FTUS43 KOAX 251713 CCA
TAFLNK
TAF COR
KLNK 251713Z 2517/2612 36015G22KT P6SM BKN080
      TEMPO 2517/2520 OVC025
     FM260000 36008KT P6SM SCT150=



000
FTUS43 KOAX 251713 CCA
TAFLNK
TAF COR
KLNK 251713Z 2517/2612 36015G22KT P6SM BKN080
      TEMPO 2517/2520 OVC025
     FM260000 36008KT P6SM SCT150=



000
FTUS43 KOAX 251713 CCA
TAFLNK
TAF COR
KLNK 251713Z 2517/2612 36015G22KT P6SM BKN080
      TEMPO 2517/2520 OVC025
     FM260000 36008KT P6SM SCT150=



000
FTUS43 KOAX 251713 CCA
TAFLNK
TAF COR
KLNK 251713Z 2517/2612 36015G22KT P6SM BKN080
      TEMPO 2517/2520 OVC025
     FM260000 36008KT P6SM SCT150=



000
FTUS43 KOAX 251712 AAB
TAFLNK
TAF AMD
KLNK 251712Z 2517/2612 36015G22KT P6SM BKN080
      TEMPO 2518/2520 OVC025
     FM260000 36008KT P6SM SCT150=



000
FTUS43 KOAX 251712 AAB
TAFLNK
TAF AMD
KLNK 251712Z 2517/2612 36015G22KT P6SM BKN080
      TEMPO 2518/2520 OVC025
     FM260000 36008KT P6SM SCT150=



000
FTUS43 KOAX 251712 AAB
TAFLNK
TAF AMD
KLNK 251712Z 2517/2612 36015G22KT P6SM BKN080
      TEMPO 2518/2520 OVC025
     FM260000 36008KT P6SM SCT150=



000
FTUS43 KOAX 251712 AAB
TAFLNK
TAF AMD
KLNK 251712Z 2517/2612 36015G22KT P6SM BKN080
      TEMPO 2518/2520 OVC025
     FM260000 36008KT P6SM SCT150=



000
FTUS43 KOAX 251710 AAA
TAFOMA
TAF AMD
KOMA 251710Z 2517/2612 34015G25KT P6SM BKN100
      TEMPO 2517/2519 BKN025
     FM260000 35008KT P6SM SCT150=



000
FTUS43 KOAX 251710 AAA
TAFOMA
TAF AMD
KOMA 251710Z 2517/2612 34015G25KT P6SM BKN100
      TEMPO 2517/2519 BKN025
     FM260000 35008KT P6SM SCT150=



000
FTUS43 KOAX 251710 AAA
TAFOMA
TAF AMD
KOMA 251710Z 2517/2612 34015G25KT P6SM BKN100
      TEMPO 2517/2519 BKN025
     FM260000 35008KT P6SM SCT150=



000
FTUS43 KOAX 251710 AAA
TAFOMA
TAF AMD
KOMA 251710Z 2517/2612 34015G25KT P6SM BKN100
      TEMPO 2517/2519 BKN025
     FM260000 35008KT P6SM SCT150=



000
FTUS43 KOAX 251240 AAA
TAFLNK
TAF AMD
KLNK 251240Z 2513/2612 32012KT 6SM BR FEW004 BKN015 OVC100
      TEMPO 2513/2515 -RA
     FM251500 35015G22KT P6SM BKN080
     FM260000 36008KT P6SM SCT150=



000
FTUS43 KOAX 251240 AAA
TAFLNK
TAF AMD
KLNK 251240Z 2513/2612 32012KT 6SM BR FEW004 BKN015 OVC100
      TEMPO 2513/2515 -RA
     FM251500 35015G22KT P6SM BKN080
     FM260000 36008KT P6SM SCT150=



000
FTUS43 KOAX 251240 AAA
TAFLNK
TAF AMD
KLNK 251240Z 2513/2612 32012KT 6SM BR FEW004 BKN015 OVC100
      TEMPO 2513/2515 -RA
     FM251500 35015G22KT P6SM BKN080
     FM260000 36008KT P6SM SCT150=



000
FTUS43 KOAX 251240 AAA
TAFLNK
TAF AMD
KLNK 251240Z 2513/2612 32012KT 6SM BR FEW004 BKN015 OVC100
      TEMPO 2513/2515 -RA
     FM251500 35015G22KT P6SM BKN080
     FM260000 36008KT P6SM SCT150=



000
FTUS43 KOAX 251120
TAFLNK
TAF
KLNK 251120Z 2512/2612 VRB03KT 4SM BR OVC002
      TEMPO 2512/2513 2SM -RA BR
     FM251400 33012KT 6SM BR SCT015 BKN080
     FM251600 35015G22KT P6SM BKN080
     FM260000 36008KT P6SM SCT150=



000
FTUS43 KOAX 251120
TAFOMA
TAF
KOMA 251120Z 2512/2612 VRB04KT 3SM BR OVC003
      TEMPO 2512/2513 1SM -RA BR
     FM251400 33012KT 6SM BR SCT015 BKN080
     FM251600 34013G20KT P6SM BKN100
     FM260000 35008KT P6SM SCT150=



000
FTUS43 KOAX 251120
TAFOMA
TAF
KOMA 251120Z 2512/2612 VRB04KT 3SM BR OVC003
      TEMPO 2512/2513 1SM -RA BR
     FM251400 33012KT 6SM BR SCT015 BKN080
     FM251600 34013G20KT P6SM BKN100
     FM260000 35008KT P6SM SCT150=



000
FTUS43 KOAX 251120
TAFOFK
TAF
KOFK 251120Z 2512/2612 33012KT P6SM FEW015 BKN200
     FM251500 34014G22KT P6SM SCT200
     FM260000 34008KT P6SM FEW060=



000
FTUS43 KOAX 251120
TAFOFK
TAF
KOFK 251120Z 2512/2612 33012KT P6SM FEW015 BKN200
     FM251500 34014G22KT P6SM SCT200
     FM260000 34008KT P6SM FEW060=



000
FTUS43 KOAX 251120
TAFLNK
TAF
KLNK 251120Z 2512/2612 VRB03KT 4SM BR OVC002
      TEMPO 2512/2513 2SM -RA BR
     FM251400 33012KT 6SM BR SCT015 BKN080
     FM251600 35015G22KT P6SM BKN080
     FM260000 36008KT P6SM SCT150=



000
FTUS43 KOAX 250810 AAA
TAFLNK
TAF AMD
KLNK 250810Z 2508/2606 VRB03KT 1 1/2SM BR OVC002
      TEMPO 2509/2511 1/2SM FG
     FM251200 33007KT 3SM BR OVC006
     FM251400 33012KT 6SM BR BKN012
     FM251600 35015G22KT P6SM OVC070
     FM260000 36008KT P6SM BKN150=



000
FTUS43 KOAX 250810 AAA
TAFLNK
TAF AMD
KLNK 250810Z 2508/2606 VRB03KT 1 1/2SM BR OVC002
      TEMPO 2509/2511 1/2SM FG
     FM251200 33007KT 3SM BR OVC006
     FM251400 33012KT 6SM BR BKN012
     FM251600 35015G22KT P6SM OVC070
     FM260000 36008KT P6SM BKN150=



000
FTUS43 KOAX 250808 AAA
TAFOMA
TAF AMD
KOMA 250808Z 2508/2606 VRB04KT 1 1/2SM BR OVC003
      TEMPO 2509/2511 1/2SM FG OVC002
     FM251200 33008KT 3SM BR OVC006
     FM251400 33012KT 6SM BR BKN012
     FM251600 34013G20KT P6SM OVC100
     FM260000 35008KT P6SM BKN150=



000
FTUS43 KOAX 250616 AAA
TAFOFK
TAF AMD
KOFK 250616Z 2506/2606 20007KT 3/4SM BR OVC002
      TEMPO 2506/2508 1/2SM FG
     FM251000 31010KT 4SM BR OVC006
     FM251200 32013KT 6SM BR OVC015
     FM251400 34015G24KT P6SM BKN120
     FM260000 34008KT P6SM BKN150=



000
FTUS43 KOAX 250616 AAA
TAFOFK
TAF AMD
KOFK 250616Z 2506/2606 20007KT 3/4SM BR OVC002
      TEMPO 2506/2508 1/2SM FG
     FM251000 31010KT 4SM BR OVC006
     FM251200 32013KT 6SM BR OVC015
     FM251400 34015G24KT P6SM BKN120
     FM260000 34008KT P6SM BKN150=



000
FTUS43 KOAX 250616 AAA
TAFOFK
TAF AMD
KOFK 250616Z 2506/2606 20007KT 3/4SM BR OVC002
      TEMPO 2506/2508 1/2SM FG
     FM251000 31010KT 4SM BR OVC006
     FM251200 32013KT 6SM BR OVC015
     FM251400 34015G24KT P6SM BKN120
     FM260000 34008KT P6SM BKN150=



000
FTUS43 KOAX 250616 AAA
TAFOFK
TAF AMD
KOFK 250616Z 2506/2606 20007KT 3/4SM BR OVC002
      TEMPO 2506/2508 1/2SM FG
     FM251000 31010KT 4SM BR OVC006
     FM251200 32013KT 6SM BR OVC015
     FM251400 34015G24KT P6SM BKN120
     FM260000 34008KT P6SM BKN150=



000
FTUS43 KOAX 250520
TAFLNK
TAF
KLNK 250520Z 2506/2606 VRB03KT 5SM BR OVC006
      TEMPO 2513/2515 31010KT P6SM NSW SCT015 BKN100
     FM251500 35015G22KT P6SM OVC070 PROB30 2516/2522 -SHRA BKN035
     FM260000 36008KT P6SM BKN150=



000
FTUS43 KOAX 250520
TAFOFK
TAF
KOFK 250520Z 2506/2606 20007KT 3SM BR OVC004
      TEMPO 2508/2510 27007KT BKN015
     FM251000 31010KT P6SM BKN100
     FM251400 34015G24KT P6SM BKN120
     FM260000 34008KT P6SM BKN150=



000
FTUS43 KOAX 250520
TAFLNK
TAF
KLNK 250520Z 2506/2606 VRB03KT 5SM BR OVC006
      TEMPO 2513/2515 31010KT P6SM NSW SCT015 BKN100
     FM251500 35015G22KT P6SM OVC070 PROB30 2516/2522 -SHRA BKN035
     FM260000 36008KT P6SM BKN150=



000
FTUS43 KOAX 250520
TAFLNK
TAF
KLNK 250520Z 2506/2606 VRB03KT 5SM BR OVC006
      TEMPO 2513/2515 31010KT P6SM NSW SCT015 BKN100
     FM251500 35015G22KT P6SM OVC070 PROB30 2516/2522 -SHRA BKN035
     FM260000 36008KT P6SM BKN150=



000
FTUS43 KOAX 250520
TAFOMA
TAF
KOMA 250520Z 2506/2606 VRB04KT 5SM BR OVC006
      TEMPO 2513/2515 31010KT P6SM NSW SCT015 BKN100
     FM251500 34013G20KT P6SM OVC100
     FM260000 35008KT P6SM BKN150=



000
FTUS43 KOAX 250520
TAFOFK
TAF
KOFK 250520Z 2506/2606 20007KT 3SM BR OVC004
      TEMPO 2508/2510 27007KT BKN015
     FM251000 31010KT P6SM BKN100
     FM251400 34015G24KT P6SM BKN120
     FM260000 34008KT P6SM BKN150=



000
FTUS43 KOAX 250520
TAFLNK
TAF
KLNK 250520Z 2506/2606 VRB03KT 5SM BR OVC006
      TEMPO 2513/2515 31010KT P6SM NSW SCT015 BKN100
     FM251500 35015G22KT P6SM OVC070 PROB30 2516/2522 -SHRA BKN035
     FM260000 36008KT P6SM BKN150=



000
FTUS43 KOAX 250520
TAFOMA
TAF
KOMA 250520Z 2506/2606 VRB04KT 5SM BR OVC006
      TEMPO 2513/2515 31010KT P6SM NSW SCT015 BKN100
     FM251500 34013G20KT P6SM OVC100
     FM260000 35008KT P6SM BKN150=



000
FTUS43 KOAX 250520
TAFOFK
TAF
KOFK 250520Z 2506/2606 20007KT 3SM BR OVC004
      TEMPO 2508/2510 27007KT BKN015
     FM251000 31010KT P6SM BKN100
     FM251400 34015G24KT P6SM BKN120
     FM260000 34008KT P6SM BKN150=



000
FTUS43 KOAX 250520
TAFOMA
TAF
KOMA 250520Z 2506/2606 VRB04KT 5SM BR OVC006
      TEMPO 2513/2515 31010KT P6SM NSW SCT015 BKN100
     FM251500 34013G20KT P6SM OVC100
     FM260000 35008KT P6SM BKN150=



000
FTUS43 KOAX 250408 AAB
TAFOMA
TAF AMD
KOMA 250408Z 2504/2524 VRB04KT 4SM BR OVC007
      TEMPO 2513/2515 P6SM NSW SCT015 BKN100
     FM251500 34013G20KT P6SM OVC100=



000
FTUS43 KOAX 250408 AAB
TAFOMA
TAF AMD
KOMA 250408Z 2504/2524 VRB04KT 4SM BR OVC007
      TEMPO 2513/2515 P6SM NSW SCT015 BKN100
     FM251500 34013G20KT P6SM OVC100=



000
FTUS43 KOAX 250407 AAA
TAFLNK
TAF AMD
KLNK 250407Z 2504/2524 VRB03KT 5SM BR OVC007
      TEMPO 2513/2515 31008KT P6SM NSW SCT015 BKN100
     FM251500 35015G22KT P6SM OVC050 PROB30 2516/2522 -SHRA BKN035=



000
FTUS43 KOAX 250407 AAA
TAFLNK
TAF AMD
KLNK 250407Z 2504/2524 VRB03KT 5SM BR OVC007
      TEMPO 2513/2515 31008KT P6SM NSW SCT015 BKN100
     FM251500 35015G22KT P6SM OVC050 PROB30 2516/2522 -SHRA BKN035=



000
FTUS43 KOAX 250138 AAA
TAFOFK
TAF AMD
KOFK 250138Z 2502/2524 14006KT 5SM BR OVC004
     FM250700 24008KT P6SM BKN100
      TEMPO 2508/2512 4SM BR
     FM251200 34017G24KT P6SM OVC050=



000
FTUS43 KOAX 250037 AAA
TAFOMA
TAF AMD
KOMA 250037Z 2501/2524 VRB06KT 4SM BR OVC007
     FM250200 13003KT 4SM BR OVC015
     FM250600 16005KT 4SM BR BKN100
     FM251500 34013G20KT P6SM OVC100=



000
FTUS43 KOAX 250037 AAA
TAFOMA
TAF AMD
KOMA 250037Z 2501/2524 VRB06KT 4SM BR OVC007
     FM250200 13003KT 4SM BR OVC015
     FM250600 16005KT 4SM BR BKN100
     FM251500 34013G20KT P6SM OVC100=



000
FTUS43 KOAX 250037 AAA
TAFOMA
TAF AMD
KOMA 250037Z 2501/2524 VRB06KT 4SM BR OVC007
     FM250200 13003KT 4SM BR OVC015
     FM250600 16005KT 4SM BR BKN100
     FM251500 34013G20KT P6SM OVC100=



000
FTUS43 KOAX 250037 AAA
TAFOMA
TAF AMD
KOMA 250037Z 2501/2524 VRB06KT 4SM BR OVC007
     FM250200 13003KT 4SM BR OVC015
     FM250600 16005KT 4SM BR BKN100
     FM251500 34013G20KT P6SM OVC100=



000
FTUS43 KOAX 242320
TAFOFK
TAF
KOFK 242320Z 2500/2524 14006KT P6SM OVC008
     FM250700 24008KT P6SM BKN100
      TEMPO 2508/2512 4SM BR
     FM251200 34017G24KT P6SM OVC050=



000
FTUS43 KOAX 242320
TAFOFK
TAF
KOFK 242320Z 2500/2524 14006KT P6SM OVC008
     FM250700 24008KT P6SM BKN100
      TEMPO 2508/2512 4SM BR
     FM251200 34017G24KT P6SM OVC050=



000
FTUS43 KOAX 242320
TAFOFK
TAF
KOFK 242320Z 2500/2524 14006KT P6SM OVC008
     FM250700 24008KT P6SM BKN100
      TEMPO 2508/2512 4SM BR
     FM251200 34017G24KT P6SM OVC050=



000
FTUS43 KOAX 242320
TAFLNK
TAF
KLNK 242320Z 2500/2524 VRB03KT 5SM BR OVC007
     FM250400 17003KT P6SM SCT015
     FM250900 23005KT 6SM BR BKN100
     FM251500 35015G22KT P6SM OVC050 PROB30 2516/2522 -SHRA BKN035=



000
FTUS43 KOAX 242320
TAFOMA
TAF
KOMA 242320Z 2500/2524 VRB06KT 4SM BR OVC010
     FM250200 13003KT 4SM BR OVC015
     FM250600 16005KT 4SM BR BKN100
     FM251500 34013G20KT P6SM OVC100=



000
FTUS43 KOAX 242320
TAFOMA
TAF
KOMA 242320Z 2500/2524 VRB06KT 4SM BR OVC010
     FM250200 13003KT 4SM BR OVC015
     FM250600 16005KT 4SM BR BKN100
     FM251500 34013G20KT P6SM OVC100=



000
FTUS43 KOAX 242320
TAFOMA
TAF
KOMA 242320Z 2500/2524 VRB06KT 4SM BR OVC010
     FM250200 13003KT 4SM BR OVC015
     FM250600 16005KT 4SM BR BKN100
     FM251500 34013G20KT P6SM OVC100=



000
FTUS43 KOAX 242320
TAFLNK
TAF
KLNK 242320Z 2500/2524 VRB03KT 5SM BR OVC007
     FM250400 17003KT P6SM SCT015
     FM250900 23005KT 6SM BR BKN100
     FM251500 35015G22KT P6SM OVC050 PROB30 2516/2522 -SHRA BKN035=



000
FTUS43 KOAX 242320
TAFLNK
TAF
KLNK 242320Z 2500/2524 VRB03KT 5SM BR OVC007
     FM250400 17003KT P6SM SCT015
     FM250900 23005KT 6SM BR BKN100
     FM251500 35015G22KT P6SM OVC050 PROB30 2516/2522 -SHRA BKN035=



000
FTUS43 KOAX 241728
TAFLNK
TAF
KLNK 241728Z 2418/2518 10010KT 4SM -RA BR BKN009 OVC015
      TEMPO 2418/2420 2SM -RA BR BKN007
     FM242300 06003KT P6SM OVC015
     FM250400 17003KT 2SM BR SCT008
     FM250900 19006KT 6SM BR BKN100
     FM251400 35015G22KT P6SM OVC050=



000
FTUS43 KOAX 241728
TAFOFK
TAF
KOFK 241728Z 2418/2518 12010KT 4SM -RA BR BKN009 OVC015
      TEMPO 2418/2420 2SM -RA BR BKN007 OVC015
     FM242100 14007KT 4SM BR OVC015
     FM250600 29008KT P6SM BKN100
      TEMPO 2508/2512 4SM BR
     FM251200 34017G24KT P6SM OVC050=



000
FTUS43 KOAX 241728
TAFOMA
TAF
KOMA 241728Z 2418/2518 11010KT 4SM -RA BR BKN008 OVC015
      TEMPO 2418/2420 2SM -RA BKN006
     FM250000 09005KT 4SM BR BKN008
     FM250200 13003KT 4SM BR OVC015
     FM250800 16005KT 4SM BR BKN100
     FM251500 34013G20KT P6SM OVC100=



000
FTUS43 KOAX 241728
TAFOFK
TAF
KOFK 241728Z 2418/2518 12010KT 4SM -RA BR BKN009 OVC015
      TEMPO 2418/2420 2SM -RA BR BKN007 OVC015
     FM242100 14007KT 4SM BR OVC015
     FM250600 29008KT P6SM BKN100
      TEMPO 2508/2512 4SM BR
     FM251200 34017G24KT P6SM OVC050=



000
FTUS43 KOAX 241728
TAFOMA
TAF
KOMA 241728Z 2418/2518 11010KT 4SM -RA BR BKN008 OVC015
      TEMPO 2418/2420 2SM -RA BKN006
     FM250000 09005KT 4SM BR BKN008
     FM250200 13003KT 4SM BR OVC015
     FM250800 16005KT 4SM BR BKN100
     FM251500 34013G20KT P6SM OVC100=



000
FTUS43 KOAX 241728
TAFLNK
TAF
KLNK 241728Z 2418/2518 10010KT 4SM -RA BR BKN009 OVC015
      TEMPO 2418/2420 2SM -RA BR BKN007
     FM242300 06003KT P6SM OVC015
     FM250400 17003KT 2SM BR SCT008
     FM250900 19006KT 6SM BR BKN100
     FM251400 35015G22KT P6SM OVC050=



000
FTUS43 KOAX 241728
TAFOFK
TAF
KOFK 241728Z 2418/2518 12010KT 4SM -RA BR BKN009 OVC015
      TEMPO 2418/2420 2SM -RA BR BKN007 OVC015
     FM242100 14007KT 4SM BR OVC015
     FM250600 29008KT P6SM BKN100
      TEMPO 2508/2512 4SM BR
     FM251200 34017G24KT P6SM OVC050=



000
FTUS43 KOAX 241728
TAFOFK
TAF
KOFK 241728Z 2418/2518 12010KT 4SM -RA BR BKN009 OVC015
      TEMPO 2418/2420 2SM -RA BR BKN007 OVC015
     FM242100 14007KT 4SM BR OVC015
     FM250600 29008KT P6SM BKN100
      TEMPO 2508/2512 4SM BR
     FM251200 34017G24KT P6SM OVC050=



000
FTUS43 KOAX 241728
TAFLNK
TAF
KLNK 241728Z 2418/2518 10010KT 4SM -RA BR BKN009 OVC015
      TEMPO 2418/2420 2SM -RA BR BKN007
     FM242300 06003KT P6SM OVC015
     FM250400 17003KT 2SM BR SCT008
     FM250900 19006KT 6SM BR BKN100
     FM251400 35015G22KT P6SM OVC050=



000
FTUS43 KOAX 241728
TAFOMA
TAF
KOMA 241728Z 2418/2518 11010KT 4SM -RA BR BKN008 OVC015
      TEMPO 2418/2420 2SM -RA BKN006
     FM250000 09005KT 4SM BR BKN008
     FM250200 13003KT 4SM BR OVC015
     FM250800 16005KT 4SM BR BKN100
     FM251500 34013G20KT P6SM OVC100=



000
FTUS43 KOAX 241728
TAFLNK
TAF
KLNK 241728Z 2418/2518 10010KT 4SM -RA BR BKN009 OVC015
      TEMPO 2418/2420 2SM -RA BR BKN007
     FM242300 06003KT P6SM OVC015
     FM250400 17003KT 2SM BR SCT008
     FM250900 19006KT 6SM BR BKN100
     FM251400 35015G22KT P6SM OVC050=



000
FTUS43 KOAX 241728
TAFOMA
TAF
KOMA 241728Z 2418/2518 11010KT 4SM -RA BR BKN008 OVC015
      TEMPO 2418/2420 2SM -RA BKN006
     FM250000 09005KT 4SM BR BKN008
     FM250200 13003KT 4SM BR OVC015
     FM250800 16005KT 4SM BR BKN100
     FM251500 34013G20KT P6SM OVC100=



000
FTUS43 KOAX 241702 AAB
TAFOFK
TAF AMD
KOFK 241702Z 2417/2512 10010KT 4SM -RA BR BKN008 OVC015
      TEMPO 2417/2418 1SM RA BR BKN004 OVC020
     FM242100 15006KT 4SM BR OVC015
     FM250100 16003KT 4SM BR FEW008 SCT250
     FM250900 29008KT P6SM BKN100=



000
FTUS43 KOAX 241702 AAB
TAFOFK
TAF AMD
KOFK 241702Z 2417/2512 10010KT 4SM -RA BR BKN008 OVC015
      TEMPO 2417/2418 1SM RA BR BKN004 OVC020
     FM242100 15006KT 4SM BR OVC015
     FM250100 16003KT 4SM BR FEW008 SCT250
     FM250900 29008KT P6SM BKN100=



000
FTUS43 KOAX 241702 AAB
TAFOFK
TAF AMD
KOFK 241702Z 2417/2512 10010KT 4SM -RA BR BKN008 OVC015
      TEMPO 2417/2418 1SM RA BR BKN004 OVC020
     FM242100 15006KT 4SM BR OVC015
     FM250100 16003KT 4SM BR FEW008 SCT250
     FM250900 29008KT P6SM BKN100=



000
FTUS43 KOAX 241605 AAB
TAFOMA
TAF AMD
KOMA 241605Z 2416/2512 13010KT 4SM -RA BR BKN009 OVC015
     FM242200 09005KT 5SM BR BKN008
     FM250400 13003KT 2SM BR SCT008
     FM250800 16005KT 6SM BR SCT250=



000
FTUS43 KOAX 241605 AAB
TAFOMA
TAF AMD
KOMA 241605Z 2416/2512 13010KT 4SM -RA BR BKN009 OVC015
     FM242200 09005KT 5SM BR BKN008
     FM250400 13003KT 2SM BR SCT008
     FM250800 16005KT 6SM BR SCT250=



000
FTUS43 KOAX 241518 AAB
TAFLNK
TAF AMD
KLNK 241518Z 2415/2512 10010KT 4SM -RA BR BKN009 OVC015
      TEMPO 2415/2417 2SM RA BR BKN007
     FM242200 06003KT P6SM SCT008
     FM250400 17003KT 2SM BR SCT008
     FM250900 19006KT 6SM BR SCT250=



000
FTUS43 KOAX 241518 AAB
TAFLNK
TAF AMD
KLNK 241518Z 2415/2512 10010KT 4SM -RA BR BKN009 OVC015
      TEMPO 2415/2417 2SM RA BR BKN007
     FM242200 06003KT P6SM SCT008
     FM250400 17003KT 2SM BR SCT008
     FM250900 19006KT 6SM BR SCT250=



000
FTUS43 KOAX 241518 AAB
TAFLNK
TAF AMD
KLNK 241518Z 2415/2512 10010KT 4SM -RA BR BKN009 OVC015
      TEMPO 2415/2417 2SM RA BR BKN007
     FM242200 06003KT P6SM SCT008
     FM250400 17003KT 2SM BR SCT008
     FM250900 19006KT 6SM BR SCT250=



000
FTUS43 KOAX 241518 AAB
TAFLNK
TAF AMD
KLNK 241518Z 2415/2512 10010KT 4SM -RA BR BKN009 OVC015
      TEMPO 2415/2417 2SM RA BR BKN007
     FM242200 06003KT P6SM SCT008
     FM250400 17003KT 2SM BR SCT008
     FM250900 19006KT 6SM BR SCT250=



000
FTUS43 KOAX 241427 AAA
TAFOFK
TAF AMD
KOFK 241427Z 2414/2512 15010KT 5SM -RA SCT015 OVC060
      TEMPO 2414/2415 2SM RA BR BKN010
     FM241600 14010KT 4SM -RA BR BKN008 OVC015
     FM242000 15006KT P6SM SCT015
     FM250300 16003KT 4SM BR FEW008 SCT250
     FM250900 29008KT P6SM BKN100=



000
FTUS43 KOAX 241427 AAA
TAFOFK
TAF AMD
KOFK 241427Z 2414/2512 15010KT 5SM -RA SCT015 OVC060
      TEMPO 2414/2415 2SM RA BR BKN010
     FM241600 14010KT 4SM -RA BR BKN008 OVC015
     FM242000 15006KT P6SM SCT015
     FM250300 16003KT 4SM BR FEW008 SCT250
     FM250900 29008KT P6SM BKN100=



000
FTUS43 KOAX 241427 AAA
TAFOFK
TAF AMD
KOFK 241427Z 2414/2512 15010KT 5SM -RA SCT015 OVC060
      TEMPO 2414/2415 2SM RA BR BKN010
     FM241600 14010KT 4SM -RA BR BKN008 OVC015
     FM242000 15006KT P6SM SCT015
     FM250300 16003KT 4SM BR FEW008 SCT250
     FM250900 29008KT P6SM BKN100=



000
FTUS43 KOAX 241427 AAA
TAFOFK
TAF AMD
KOFK 241427Z 2414/2512 15010KT 5SM -RA SCT015 OVC060
      TEMPO 2414/2415 2SM RA BR BKN010
     FM241600 14010KT 4SM -RA BR BKN008 OVC015
     FM242000 15006KT P6SM SCT015
     FM250300 16003KT 4SM BR FEW008 SCT250
     FM250900 29008KT P6SM BKN100=



000
FTUS43 KOAX 241336 CCA
TAFOMA
TAF COR
KOMA 241336Z 2414/2512 12014G20KT 5SM -RA BR SCT015 OVC025
      TEMPO 2414/2416 VRB20G40KT 2SM RA BR BKN007
     FM241600 12014G19KT P6SM BKN007 OVC015
     FM241700 12010KT 4SM -RA BR OVC007
     FM242200 09005KT 5SM BR BKN008
     FM250400 13003KT 2SM BR SCT008
     FM250800 16005KT 6SM BR SCT250=



000
FTUS43 KOAX 241336 CCA
TAFOMA
TAF COR
KOMA 241336Z 2414/2512 12014G20KT 5SM -RA BR SCT015 OVC025
      TEMPO 2414/2416 VRB20G40KT 2SM RA BR BKN007
     FM241600 12014G19KT P6SM BKN007 OVC015
     FM241700 12010KT 4SM -RA BR OVC007
     FM242200 09005KT 5SM BR BKN008
     FM250400 13003KT 2SM BR SCT008
     FM250800 16005KT 6SM BR SCT250=



000
FTUS43 KOAX 241336 CCA
TAFOMA
TAF COR
KOMA 241336Z 2414/2512 12014G20KT 5SM -RA BR SCT015 OVC025
      TEMPO 2414/2416 VRB20G40KT 2SM RA BR BKN007
     FM241600 12014G19KT P6SM BKN007 OVC015
     FM241700 12010KT 4SM -RA BR OVC007
     FM242200 09005KT 5SM BR BKN008
     FM250400 13003KT 2SM BR SCT008
     FM250800 16005KT 6SM BR SCT250=



000
FTUS43 KOAX 241334 AAA
TAFOMA
TAF AMD
KOMA 241334Z 2414/2512 12014G20KT P6SM -RA SCT015 OVC025
      TEMPO 2414/2416 VRB20G40KT 2SM -SHRA BKN007
     FM241600 12014G19KT P6SM BKN007 OVC015
     FM241700 12010KT 4SM -RA BR OVC007
     FM242200 09005KT 5SM BR BKN008
     FM250400 13003KT 2SM BR SCT008
     FM250800 16005KT 6SM BR SCT250=



000
FTUS43 KOAX 241334 AAA
TAFOMA
TAF AMD
KOMA 241334Z 2414/2512 12014G20KT P6SM -RA SCT015 OVC025
      TEMPO 2414/2416 VRB20G40KT 2SM -SHRA BKN007
     FM241600 12014G19KT P6SM BKN007 OVC015
     FM241700 12010KT 4SM -RA BR OVC007
     FM242200 09005KT 5SM BR BKN008
     FM250400 13003KT 2SM BR SCT008
     FM250800 16005KT 6SM BR SCT250=



000
FTUS43 KOAX 241332 AAA
TAFLNK
TAF AMD
KLNK 241332Z 2414/2512 10013KT P6SM BKN009 OVC015
      TEMPO 2414/2415 VRB10G30KT 5SM -RA BKN007
     FM241500 10013KT P6SM OVC008
     FM241700 11009KT 4SM -RA BR OVC008
     FM242200 06003KT P6SM SCT008
     FM250400 17003KT 2SM BR SCT008
     FM250900 19006KT 6SM BR SCT250=



000
FTUS43 KOAX 241332 AAA
TAFLNK
TAF AMD
KLNK 241332Z 2414/2512 10013KT P6SM BKN009 OVC015
      TEMPO 2414/2415 VRB10G30KT 5SM -RA BKN007
     FM241500 10013KT P6SM OVC008
     FM241700 11009KT 4SM -RA BR OVC008
     FM242200 06003KT P6SM SCT008
     FM250400 17003KT 2SM BR SCT008
     FM250900 19006KT 6SM BR SCT250=



000
FTUS43 KOAX 241127
TAFOFK
TAF
KOFK 241127Z 2412/2512 13012KT P6SM SCT015 OVC060
      TEMPO 2414/2416 -RA BKN015
     FM241600 14010KT 4SM -RA BR BKN008 OVC015
     FM242000 15006KT P6SM SCT015
     FM250300 16003KT 4SM BR FEW008 SCT250
     FM250900 29008KT P6SM BKN100=



000
FTUS43 KOAX 241127
TAFOMA
TAF
KOMA 241127Z 2412/2512 12014G20KT P6SM -RA SCT015 OVC025
      TEMPO 2413/2414 4SM -SHRA BKN007
     FM241500 12014G19KT P6SM BKN007 OVC015
     FM241700 12010KT 4SM -RA BR OVC007
     FM242200 09005KT 5SM BR BKN008
     FM250400 13003KT 2SM BR SCT008
     FM250800 16005KT 6SM BR SCT250=



000
FTUS43 KOAX 241127
TAFLNK
TAF
KLNK 241127Z 2412/2512 10013KT 4SM RA BKN009 OVC015
      TEMPO 2412/2413 2SM -TSRA BKN009CB
     FM241400 10013KT P6SM OVC008
     FM241700 11009KT 4SM -RA BR OVC008
     FM242200 06003KT P6SM SCT008
     FM250400 17003KT 2SM BR SCT008
     FM250900 19006KT 6SM BR SCT250=



000
FTUS43 KOAX 241127
TAFOMA
TAF
KOMA 241127Z 2412/2512 12014G20KT P6SM -RA SCT015 OVC025
      TEMPO 2413/2414 4SM -SHRA BKN007
     FM241500 12014G19KT P6SM BKN007 OVC015
     FM241700 12010KT 4SM -RA BR OVC007
     FM242200 09005KT 5SM BR BKN008
     FM250400 13003KT 2SM BR SCT008
     FM250800 16005KT 6SM BR SCT250=



000
FTUS43 KOAX 241127
TAFLNK
TAF
KLNK 241127Z 2412/2512 10013KT 4SM RA BKN009 OVC015
      TEMPO 2412/2413 2SM -TSRA BKN009CB
     FM241400 10013KT P6SM OVC008
     FM241700 11009KT 4SM -RA BR OVC008
     FM242200 06003KT P6SM SCT008
     FM250400 17003KT 2SM BR SCT008
     FM250900 19006KT 6SM BR SCT250=



000
FTUS43 KOAX 241127
TAFOFK
TAF
KOFK 241127Z 2412/2512 13012KT P6SM SCT015 OVC060
      TEMPO 2414/2416 -RA BKN015
     FM241600 14010KT 4SM -RA BR BKN008 OVC015
     FM242000 15006KT P6SM SCT015
     FM250300 16003KT 4SM BR FEW008 SCT250
     FM250900 29008KT P6SM BKN100=



000
FTUS43 KOAX 241127
TAFLNK
TAF
KLNK 241127Z 2412/2512 10013KT 4SM RA BKN009 OVC015
      TEMPO 2412/2413 2SM -TSRA BKN009CB
     FM241400 10013KT P6SM OVC008
     FM241700 11009KT 4SM -RA BR OVC008
     FM242200 06003KT P6SM SCT008
     FM250400 17003KT 2SM BR SCT008
     FM250900 19006KT 6SM BR SCT250=



000
FTUS43 KOAX 241127
TAFOMA
TAF
KOMA 241127Z 2412/2512 12014G20KT P6SM -RA SCT015 OVC025
      TEMPO 2413/2414 4SM -SHRA BKN007
     FM241500 12014G19KT P6SM BKN007 OVC015
     FM241700 12010KT 4SM -RA BR OVC007
     FM242200 09005KT 5SM BR BKN008
     FM250400 13003KT 2SM BR SCT008
     FM250800 16005KT 6SM BR SCT250=



000
FTUS43 KOAX 241127
TAFOFK
TAF
KOFK 241127Z 2412/2512 13012KT P6SM SCT015 OVC060
      TEMPO 2414/2416 -RA BKN015
     FM241600 14010KT 4SM -RA BR BKN008 OVC015
     FM242000 15006KT P6SM SCT015
     FM250300 16003KT 4SM BR FEW008 SCT250
     FM250900 29008KT P6SM BKN100=



000
FTUS43 KOAX 241127
TAFOMA
TAF
KOMA 241127Z 2412/2512 12014G20KT P6SM -RA SCT015 OVC025
      TEMPO 2413/2414 4SM -SHRA BKN007
     FM241500 12014G19KT P6SM BKN007 OVC015
     FM241700 12010KT 4SM -RA BR OVC007
     FM242200 09005KT 5SM BR BKN008
     FM250400 13003KT 2SM BR SCT008
     FM250800 16005KT 6SM BR SCT250=



000
FTUS43 KOAX 241127
TAFOFK
TAF
KOFK 241127Z 2412/2512 13012KT P6SM SCT015 OVC060
      TEMPO 2414/2416 -RA BKN015
     FM241600 14010KT 4SM -RA BR BKN008 OVC015
     FM242000 15006KT P6SM SCT015
     FM250300 16003KT 4SM BR FEW008 SCT250
     FM250900 29008KT P6SM BKN100=



000
FTUS43 KOAX 241127
TAFLNK
TAF
KLNK 241127Z 2412/2512 10013KT 4SM RA BKN009 OVC015
      TEMPO 2412/2413 2SM -TSRA BKN009CB
     FM241400 10013KT P6SM OVC008
     FM241700 11009KT 4SM -RA BR OVC008
     FM242200 06003KT P6SM SCT008
     FM250400 17003KT 2SM BR SCT008
     FM250900 19006KT 6SM BR SCT250=



000
FTUS43 KOAX 240940 AAA
TAFLNK
TAF AMD
KLNK 240940Z 2410/2506 09008KT 5SM RA BKN015 OVC050
      TEMPO 2410/2412 3SM -TSRA BKN012CB
     FM241200 10015G23KT 3SM -RA BKN007 OVC015
     FM242100 VRB04KT P6SM BKN030
     FM250000 20006KT P6SM BKN100=



000
FTUS43 KOAX 240940 AAA
TAFLNK
TAF AMD
KLNK 240940Z 2410/2506 09008KT 5SM RA BKN015 OVC050
      TEMPO 2410/2412 3SM -TSRA BKN012CB
     FM241200 10015G23KT 3SM -RA BKN007 OVC015
     FM242100 VRB04KT P6SM BKN030
     FM250000 20006KT P6SM BKN100=



000
FTUS43 KOAX 240940 AAA
TAFLNK
TAF AMD
KLNK 240940Z 2410/2506 09008KT 5SM RA BKN015 OVC050
      TEMPO 2410/2412 3SM -TSRA BKN012CB
     FM241200 10015G23KT 3SM -RA BKN007 OVC015
     FM242100 VRB04KT P6SM BKN030
     FM250000 20006KT P6SM BKN100=



    US Dept of Commerce
    National Oceanic and Atmospheric Administration
    National Weather Service
    1325 East West Highway
    Silver Spring, MD 20910
    Page Author: NWS Internet Services Team
Disclaimer
Information Quality
Credits
Glossary
Privacy Policy
Freedom of Information Act (FOIA)
About Us
Career Opportunities